sensor_id;sensor_type;location;lat;lon;timestamp;temperature;humidity
58638;DHT22;54976;51.510;7.522;2023-06-01T00:00:22;14.90;93.30
58638;DHT22;54976;51.510;7.522;2023-06-01T00:03:23;14.80;93.70
58638;DHT22;54976;51.510;7.522;2023-06-01T00:06:25;14.80;94.40
58638;DHT22;54976;51.510;7.522;2023-06-01T00:09:28;14.70;94.80
58638;DHT22;54976;51.510;7.522;2023-06-01T00:12:29;14.70;95.10
58638;DHT22;54976;51.510;7.522;2023-06-01T00:15:30;14.70;95.90
58638;DHT22;54976;51.510;7.522;2023-06-01T00:18:30;14.60;96.20
58638;DHT22;54976;51.510;7.522;2023-06-01T00:21:31;14.50;96.90
58638;DHT22;54976;51.510;7.522;2023-06-01T00:24:33;14.50;96.80
58638;DHT22;54976;51.510;7.522;2023-06-01T00:27:34;14.50;97.10
58638;DHT22;54976;51.510;7.522;2023-06-01T00:30:34;14.40;97.30
58638;DHT22;54976;51.510;7.522;2023-06-01T00:33:35;14.40;97.70
58638;DHT22;54976;51.510;7.522;2023-06-01T00:36:36;14.40;97.70
58638;DHT22;54976;51.510;7.522;2023-06-01T00:39:36;14.30;97.70
58638;DHT22;54976;51.510;7.522;2023-06-01T00:42:37;14.30;98.10
58638;DHT22;54976;51.510;7.522;2023-06-01T00:45:37;14.20;97.80
58638;DHT22;54976;51.510;7.522;2023-06-01T00:48:39;14.20;98.30
58638;DHT22;54976;51.510;7.522;2023-06-01T00:51:39;14.10;98.80
58638;DHT22;54976;51.510;7.522;2023-06-01T00:54:41;14.00;98.90
58638;DHT22;54976;51.510;7.522;2023-06-01T00:57:44;13.90;99.10
58638;DHT22;54976;51.510;7.522;2023-06-01T01:00:45;13.90;99.20
58638;DHT22;54976;51.510;7.522;2023-06-01T01:03:51;13.80;99.50
58638;DHT22;54976;51.510;7.522;2023-06-01T01:10:22;13.80;99.60
58638;DHT22;54976;51.510;7.522;2023-06-01T01:13:56;13.70;99.50
58638;DHT22;54976;51.510;7.522;2023-06-01T01:17:13;13.60;99.70
58638;DHT22;54976;51.510;7.522;2023-06-01T01:20:20;13.60;99.80
58638;DHT22;54976;51.510;7.522;2023-06-01T01:23:43;13.50;99.90
58638;DHT22;54976;51.510;7.522;2023-06-01T01:26:52;13.40;99.90
58638;DHT22;54976;51.510;7.522;2023-06-01T01:29:55;13.30;99.90
58638;DHT22;54976;51.510;7.522;2023-06-01T01:32:59;13.30;99.90
58638;DHT22;54976;51.510;7.522;2023-06-01T01:36:01;13.20;99.90
58638;DHT22;54976;51.510;7.522;2023-06-01T01:39:02;13.20;99.90
58638;DHT22;54976;51.510;7.522;2023-06-01T01:42:03;13.10;99.90
58638;DHT22;54976;51.510;7.522;2023-06-01T01:45:05;13.10;99.90
58638;DHT22;54976;51.510;7.522;2023-06-01T01:51:16;13.00;99.90
58638;DHT22;54976;51.510;7.522;2023-06-01T01:54:20;12.90;99.90
58638;DHT22;54976;51.510;7.522;2023-06-01T01:57:22;12.90;99.90
58638;DHT22;54976;51.510;7.522;2023-06-01T02:00:23;12.80;99.90
58638;DHT22;54976;51.510;7.522;2023-06-01T02:03:24;12.80;99.90
58638;DHT22;54976;51.510;7.522;2023-06-01T02:06:25;12.70;99.90
58638;DHT22;54976;51.510;7.522;2023-06-01T02:09:26;12.70;99.90
58638;DHT22;54976;51.510;7.522;2023-06-01T02:12:27;12.70;99.90
58638;DHT22;54976;51.510;7.522;2023-06-01T02:15:27;12.70;99.90
58638;DHT22;54976;51.510;7.522;2023-06-01T02:18:28;12.60;99.90
58638;DHT22;54976;51.510;7.522;2023-06-01T02:21:30;12.60;99.90
58638;DHT22;54976;51.510;7.522;2023-06-01T02:24:31;12.50;99.90
58638;DHT22;54976;51.510;7.522;2023-06-01T02:27:32;12.50;99.90
58638;DHT22;54976;51.510;7.522;2023-06-01T02:30:32;12.40;99.90
58638;DHT22;54976;51.510;7.522;2023-06-01T02:33:33;12.30;99.90
58638;DHT22;54976;51.510;7.522;2023-06-01T02:36:34;12.30;99.90
58638;DHT22;54976;51.510;7.522;2023-06-01T02:39:34;12.30;99.90
58638;DHT22;54976;51.510;7.522;2023-06-01T02:42:35;12.20;99.90
58638;DHT22;54976;51.510;7.522;2023-06-01T02:45:36;12.10;99.90
58638;DHT22;54976;51.510;7.522;2023-06-01T02:48:36;12.00;99.90
58638;DHT22;54976;51.510;7.522;2023-06-01T02:51:37;12.10;99.90
58638;DHT22;54976;51.510;7.522;2023-06-01T02:54:37;12.00;99.90
58638;DHT22;54976;51.510;7.522;2023-06-01T02:57:38;11.90;99.90
58638;DHT22;54976;51.510;7.522;2023-06-01T03:00:38;11.80;99.90
58638;DHT22;54976;51.510;7.522;2023-06-01T03:03:39;11.80;99.90
58638;DHT22;54976;51.510;7.522;2023-06-01T03:06:40;11.70;99.90
58638;DHT22;54976;51.510;7.522;2023-06-01T03:09:41;11.60;99.90
58638;DHT22;54976;51.510;7.522;2023-06-01T03:12:41;11.60;99.90
58638;DHT22;54976;51.510;7.522;2023-06-01T03:15:42;11.60;99.90
58638;DHT22;54976;51.510;7.522;2023-06-01T03:18:43;11.60;99.90
58638;DHT22;54976;51.510;7.522;2023-06-01T03:21:43;11.50;99.90
58638;DHT22;54976;51.510;7.522;2023-06-01T03:24:44;11.60;99.90
58638;DHT22;54976;51.510;7.522;2023-06-01T03:27:48;11.50;99.90
58638;DHT22;54976;51.510;7.522;2023-06-01T03:30:48;11.50;99.90
58638;DHT22;54976;51.510;7.522;2023-06-01T03:33:49;11.40;99.90
58638;DHT22;54976;51.510;7.522;2023-06-01T03:36:49;11.30;99.90
58638;DHT22;54976;51.510;7.522;2023-06-01T03:39:50;11.20;99.90
58638;DHT22;54976;51.510;7.522;2023-06-01T03:42:51;11.30;99.90
58638;DHT22;54976;51.510;7.522;2023-06-01T03:45:51;11.40;99.90
58638;DHT22;54976;51.510;7.522;2023-06-01T03:48:52;11.40;99.90
58638;DHT22;54976;51.510;7.522;2023-06-01T03:51:53;11.40;99.90
58638;DHT22;54976;51.510;7.522;2023-06-01T03:54:55;11.30;99.90
58638;DHT22;54976;51.510;7.522;2023-06-01T03:57:56;11.30;99.90
58638;DHT22;54976;51.510;7.522;2023-06-01T04:00:57;11.30;99.90
58638;DHT22;54976;51.510;7.522;2023-06-01T04:03:58;11.30;99.90
58638;DHT22;54976;51.510;7.522;2023-06-01T04:06:58;11.20;99.90
58638;DHT22;54976;51.510;7.522;2023-06-01T04:10:01;11.20;99.90
58638;DHT22;54976;51.510;7.522;2023-06-01T04:13:02;11.20;99.90
58638;DHT22;54976;51.510;7.522;2023-06-01T04:16:02;11.20;99.90
58638;DHT22;54976;51.510;7.522;2023-06-01T04:19:03;11.20;99.90
58638;DHT22;54976;51.510;7.522;2023-06-01T04:22:04;11.10;99.90
58638;DHT22;54976;51.510;7.522;2023-06-01T04:25:07;11.20;99.90
58638;DHT22;54976;51.510;7.522;2023-06-01T04:28:08;11.20;99.90
58638;DHT22;54976;51.510;7.522;2023-06-01T04:31:10;11.20;99.90
58638;DHT22;54976;51.510;7.522;2023-06-01T04:34:17;11.20;99.90
58638;DHT22;54976;51.510;7.522;2023-06-01T04:37:18;11.30;99.90
58638;DHT22;54976;51.510;7.522;2023-06-01T04:40:21;11.20;99.90
58638;DHT22;54976;51.510;7.522;2023-06-01T04:43:21;11.20;99.90
58638;DHT22;54976;51.510;7.522;2023-06-01T04:46:24;11.20;99.90
58638;DHT22;54976;51.510;7.522;2023-06-01T04:49:26;11.20;99.90
58638;DHT22;54976;51.510;7.522;2023-06-01T04:52:28;11.30;99.90
58638;DHT22;54976;51.510;7.522;2023-06-01T04:55:29;11.40;99.90
58638;DHT22;54976;51.510;7.522;2023-06-01T04:58:30;11.50;99.90
58638;DHT22;54976;51.510;7.522;2023-06-01T05:01:31;11.30;99.90
58638;DHT22;54976;51.510;7.522;2023-06-01T05:04:33;11.20;99.90
58638;DHT22;54976;51.510;7.522;2023-06-01T05:07:34;11.30;99.90
58638;DHT22;54976;51.510;7.522;2023-06-01T05:10:34;11.30;99.90
58638;DHT22;54976;51.510;7.522;2023-06-01T05:13:36;11.30;99.90
58638;DHT22;54976;51.510;7.522;2023-06-01T05:16:37;11.50;99.90
58638;DHT22;54976;51.510;7.522;2023-06-01T05:19:37;11.50;99.90
58638;DHT22;54976;51.510;7.522;2023-06-01T05:22:38;11.20;99.90
58638;DHT22;54976;51.510;7.522;2023-06-01T05:25:38;11.30;99.90
58638;DHT22;54976;51.510;7.522;2023-06-01T05:28:39;11.20;99.90
58638;DHT22;54976;51.510;7.522;2023-06-01T05:31:40;11.40;99.90
58638;DHT22;54976;51.510;7.522;2023-06-01T05:34:41;11.40;99.90
58638;DHT22;54976;51.510;7.522;2023-06-01T05:37:41;11.30;99.90
58638;DHT22;54976;51.510;7.522;2023-06-01T05:40:42;11.30;99.90
58638;DHT22;54976;51.510;7.522;2023-06-01T05:43:42;11.20;99.90
58638;DHT22;54976;51.510;7.522;2023-06-01T05:46:43;11.20;99.90
58638;DHT22;54976;51.510;7.522;2023-06-01T05:49:43;11.30;99.90
58638;DHT22;54976;51.510;7.522;2023-06-01T05:52:44;11.50;99.90
58638;DHT22;54976;51.510;7.522;2023-06-01T05:55:45;11.50;99.90
58638;DHT22;54976;51.510;7.522;2023-06-01T05:58:45;11.60;99.90
58638;DHT22;54976;51.510;7.522;2023-06-01T06:01:50;11.60;99.50
58638;DHT22;54976;51.510;7.522;2023-06-01T06:04:51;11.50;99.90
58638;DHT22;54976;51.510;7.522;2023-06-01T06:07:52;11.50;99.50
58638;DHT22;54976;51.510;7.522;2023-06-01T06:10:53;11.50;99.40
58638;DHT22;54976;51.510;7.522;2023-06-01T06:13:53;11.70;99.50
58638;DHT22;54976;51.510;7.522;2023-06-01T06:16:54;11.60;98.90
58638;DHT22;54976;51.510;7.522;2023-06-01T06:19:55;11.70;99.30
58638;DHT22;54976;51.510;7.522;2023-06-01T06:22:56;11.60;99.10
58638;DHT22;54976;51.510;7.522;2023-06-01T06:25:56;11.60;99.40
58638;DHT22;54976;51.510;7.522;2023-06-01T06:28:57;11.70;99.30
58638;DHT22;54976;51.510;7.522;2023-06-01T06:31:58;11.70;98.80
58638;DHT22;54976;51.510;7.522;2023-06-01T06:34:59;11.70;98.80
58638;DHT22;54976;51.510;7.522;2023-06-01T06:37:59;11.90;98.80
58638;DHT22;54976;51.510;7.522;2023-06-01T06:41:00;12.00;98.30
58638;DHT22;54976;51.510;7.522;2023-06-01T06:44:02;12.00;98.10
58638;DHT22;54976;51.510;7.522;2023-06-01T06:47:02;12.00;97.90
58638;DHT22;54976;51.510;7.522;2023-06-01T06:50:03;12.10;97.60
58638;DHT22;54976;51.510;7.522;2023-06-01T06:53:04;12.30;98.00
58638;DHT22;54976;51.510;7.522;2023-06-01T06:56:05;12.50;97.10
58638;DHT22;54976;51.510;7.522;2023-06-01T06:59:06;12.60;96.90
58638;DHT22;54976;51.510;7.522;2023-06-01T07:02:06;12.50;96.90
58638;DHT22;54976;51.510;7.522;2023-06-01T07:05:07;12.30;96.80
58638;DHT22;54976;51.510;7.522;2023-06-01T07:08:08;12.30;97.10
58638;DHT22;54976;51.510;7.522;2023-06-01T07:11:09;12.40;97.20
58638;DHT22;54976;51.510;7.522;2023-06-01T07:14:10;12.60;96.90
58638;DHT22;54976;51.510;7.522;2023-06-01T07:17:11;12.80;95.80
58638;DHT22;54976;51.510;7.522;2023-06-01T07:20:12;13.10;95.80
58638;DHT22;54976;51.510;7.522;2023-06-01T07:23:12;13.30;95.00
58638;DHT22;54976;51.510;7.522;2023-06-01T07:26:13;13.20;93.60
58638;DHT22;54976;51.510;7.522;2023-06-01T07:29:14;13.10;93.80
58638;DHT22;54976;51.510;7.522;2023-06-01T07:32:15;13.30;93.70
58638;DHT22;54976;51.510;7.522;2023-06-01T07:35:15;13.30;93.60
58638;DHT22;54976;51.510;7.522;2023-06-01T07:38:16;13.20;93.40
58638;DHT22;54976;51.510;7.522;2023-06-01T07:41:17;13.50;93.10
58638;DHT22;54976;51.510;7.522;2023-06-01T07:44:18;13.30;92.60
58638;DHT22;54976;51.510;7.522;2023-06-01T07:47:18;13.60;93.50
58638;DHT22;54976;51.510;7.522;2023-06-01T07:50:19;13.70;92.20
58638;DHT22;54976;51.510;7.522;2023-06-01T07:53:20;13.80;92.80
58638;DHT22;54976;51.510;7.522;2023-06-01T07:56:21;14.00;91.60
58638;DHT22;54976;51.510;7.522;2023-06-01T07:59:23;14.20;91.80
58638;DHT22;54976;51.510;7.522;2023-06-01T08:02:24;14.20;90.80
58638;DHT22;54976;51.510;7.522;2023-06-01T08:05:26;13.90;91.80
58638;DHT22;54976;51.510;7.522;2023-06-01T08:08:27;13.90;91.80
58638;DHT22;54976;51.510;7.522;2023-06-01T08:11:27;13.90;91.70
58638;DHT22;54976;51.510;7.522;2023-06-01T08:14:28;14.00;91.50
58638;DHT22;54976;51.510;7.522;2023-06-01T08:17:29;14.40;91.50
58638;DHT22;54976;51.510;7.522;2023-06-01T08:20:29;14.90;90.10
58638;DHT22;54976;51.510;7.522;2023-06-01T08:23:30;14.60;89.20
58638;DHT22;54976;51.510;7.522;2023-06-01T08:26:31;14.40;90.40
58638;DHT22;54976;51.510;7.522;2023-06-01T08:29:32;14.50;90.30
58638;DHT22;54976;51.510;7.522;2023-06-01T08:32:32;14.70;90.30
58638;DHT22;54976;51.510;7.522;2023-06-01T08:35:33;14.70;89.10
58638;DHT22;54976;51.510;7.522;2023-06-01T08:38:34;15.10;88.70
58638;DHT22;54976;51.510;7.522;2023-06-01T08:41:53;15.50;85.80
58638;DHT22;54976;51.510;7.522;2023-06-01T08:44:58;15.90;83.20
58638;DHT22;54976;51.510;7.522;2023-06-01T08:48:05;15.80;84.20
58638;DHT22;54976;51.510;7.522;2023-06-01T08:51:08;16.00;80.70
58638;DHT22;54976;51.510;7.522;2023-06-01T08:54:09;15.60;82.10
58638;DHT22;54976;51.510;7.522;2023-06-01T08:57:11;16.10;81.90
58638;DHT22;54976;51.510;7.522;2023-06-01T09:00:12;16.60;81.40
58638;DHT22;54976;51.510;7.522;2023-06-01T09:03:14;17.20;74.90
58638;DHT22;54976;51.510;7.522;2023-06-01T09:06:15;17.40;72.70
58638;DHT22;54976;51.510;7.522;2023-06-01T09:09:15;17.70;71.40
58638;DHT22;54976;51.510;7.522;2023-06-01T09:12:29;18.40;71.10
58638;DHT22;54976;51.510;7.522;2023-06-01T09:15:30;18.90;65.50
58638;DHT22;54976;51.510;7.522;2023-06-01T09:18:31;18.80;61.10
58638;DHT22;54976;51.510;7.522;2023-06-01T09:21:31;18.80;63.80
58638;DHT22;54976;51.510;7.522;2023-06-01T09:24:32;18.60;62.20
58638;DHT22;54976;51.510;7.522;2023-06-01T09:27:53;18.20;63.20
58638;DHT22;54976;51.510;7.522;2023-06-01T09:30:54;18.20;65.90
58638;DHT22;54976;51.510;7.522;2023-06-01T09:34:04;18.50;64.80
58638;DHT22;54976;51.510;7.522;2023-06-01T09:37:05;18.70;63.00
58638;DHT22;54976;51.510;7.522;2023-06-01T09:40:18;18.30;62.20
58638;DHT22;54976;51.510;7.522;2023-06-01T09:43:20;18.40;63.20
58638;DHT22;54976;51.510;7.522;2023-06-01T09:46:21;18.50;63.00
58638;DHT22;54976;51.510;7.522;2023-06-01T09:49:27;18.90;62.10
58638;DHT22;54976;51.510;7.522;2023-06-01T09:52:28;19.50;59.40
58638;DHT22;54976;51.510;7.522;2023-06-01T09:55:29;20.20;58.50
58638;DHT22;54976;51.510;7.522;2023-06-01T09:58:29;20.00;58.20
58638;DHT22;54976;51.510;7.522;2023-06-01T10:01:31;20.10;57.30
58638;DHT22;54976;51.510;7.522;2023-06-01T10:04:33;20.40;58.00
58638;DHT22;54976;51.510;7.522;2023-06-01T10:07:36;20.20;56.90
58638;DHT22;54976;51.510;7.522;2023-06-01T10:10:40;20.00;56.40
58638;DHT22;54976;51.510;7.522;2023-06-01T10:13:42;20.10;56.40
58638;DHT22;54976;51.510;7.522;2023-06-01T10:16:43;19.90;56.70
58638;DHT22;54976;51.510;7.522;2023-06-01T10:19:44;19.90;58.20
58638;DHT22;54976;51.510;7.522;2023-06-01T10:22:45;20.10;57.10
58638;DHT22;54976;51.510;7.522;2023-06-01T10:25:49;19.40;57.40
58638;DHT22;54976;51.510;7.522;2023-06-01T10:28:51;19.00;58.60
58638;DHT22;54976;51.510;7.522;2023-06-01T10:31:52;19.00;59.30
58638;DHT22;54976;51.510;7.522;2023-06-01T10:34:53;18.70;60.00
58638;DHT22;54976;51.510;7.522;2023-06-01T10:41:29;18.10;64.10
58638;DHT22;54976;51.510;7.522;2023-06-01T10:50:42;18.00;68.80
58638;DHT22;54976;51.510;7.522;2023-06-01T10:53:42;18.00;68.60
58638;DHT22;54976;51.510;7.522;2023-06-01T10:56:43;17.80;69.70
58638;DHT22;54976;51.510;7.522;2023-06-01T10:59:44;17.70;70.00
58638;DHT22;54976;51.510;7.522;2023-06-01T11:05:50;17.30;70.80
58638;DHT22;54976;51.510;7.522;2023-06-01T11:08:55;17.30;72.40
58638;DHT22;54976;51.510;7.522;2023-06-01T11:11:57;17.40;71.20
58638;DHT22;54976;51.510;7.522;2023-06-01T11:15:08;17.40;72.10
58638;DHT22;54976;51.510;7.522;2023-06-01T11:18:46;17.40;73.00
58638;DHT22;54976;51.510;7.522;2023-06-01T11:21:56;17.60;73.80
58638;DHT22;54976;51.510;7.522;2023-06-01T11:25:05;17.80;72.30
58638;DHT22;54976;51.510;7.522;2023-06-01T11:28:08;17.60;72.20
58638;DHT22;54976;51.510;7.522;2023-06-01T11:31:10;17.70;74.60
58638;DHT22;54976;51.510;7.522;2023-06-01T11:34:12;17.80;73.20
58638;DHT22;54976;51.510;7.522;2023-06-01T11:37:17;17.80;73.30
58638;DHT22;54976;51.510;7.522;2023-06-01T11:40:18;17.90;73.80
58638;DHT22;54976;51.510;7.522;2023-06-01T11:43:29;17.80;73.60
58638;DHT22;54976;51.510;7.522;2023-06-01T11:46:30;17.80;75.50
58638;DHT22;54976;51.510;7.522;2023-06-01T11:49:30;18.00;72.60
58638;DHT22;54976;51.510;7.522;2023-06-01T11:52:31;17.90;72.40
58638;DHT22;54976;51.510;7.522;2023-06-01T11:55:32;18.00;73.30
58638;DHT22;54976;51.510;7.522;2023-06-01T11:58:33;18.20;72.30
58638;DHT22;54976;51.510;7.522;2023-06-01T12:01:34;18.40;70.10
58638;DHT22;54976;51.510;7.522;2023-06-01T12:04:37;18.60;71.20
58638;DHT22;54976;51.510;7.522;2023-06-01T12:07:49;19.00;65.60
58638;DHT22;54976;51.510;7.522;2023-06-01T12:10:51;19.40;64.40
58638;DHT22;54976;51.510;7.522;2023-06-01T12:13:57;20.30;64.20
58638;DHT22;54976;51.510;7.522;2023-06-01T12:16:59;20.90;59.40
58638;DHT22;54976;51.510;7.522;2023-06-01T12:20:03;20.60;59.20
58638;DHT22;54976;51.510;7.522;2023-06-01T12:26:15;21.30;57.40
58638;DHT22;54976;51.510;7.522;2023-06-01T12:29:34;21.10;58.40
58638;DHT22;54976;51.510;7.522;2023-06-01T12:32:38;21.60;56.20
58638;DHT22;54976;51.510;7.522;2023-06-01T12:35:48;21.70;56.50
58638;DHT22;54976;51.510;7.522;2023-06-01T12:38:51;21.70;57.30
58638;DHT22;54976;51.510;7.522;2023-06-01T12:41:52;22.00;54.70
58638;DHT22;54976;51.510;7.522;2023-06-01T12:44:53;20.90;56.50
58638;DHT22;54976;51.510;7.522;2023-06-01T12:47:53;21.80;55.70
58638;DHT22;54976;51.510;7.522;2023-06-01T12:50:54;22.60;52.80
58638;DHT22;54976;51.510;7.522;2023-06-01T12:53:55;22.80;52.90
58638;DHT22;54976;51.510;7.522;2023-06-01T12:56:56;22.60;52.90
58638;DHT22;54976;51.510;7.522;2023-06-01T12:59:57;22.50;53.10
58638;DHT22;54976;51.510;7.522;2023-06-01T13:02:57;23.00;52.60
58638;DHT22;54976;51.510;7.522;2023-06-01T13:05:59;24.00;51.20
58638;DHT22;54976;51.510;7.522;2023-06-01T13:09:01;23.30;51.60
58638;DHT22;54976;51.510;7.522;2023-06-01T13:12:02;23.00;51.10
58638;DHT22;54976;51.510;7.522;2023-06-01T13:15:04;22.90;50.80
58638;DHT22;54976;51.510;7.522;2023-06-01T13:18:05;21.50;53.40
58638;DHT22;54976;51.510;7.522;2023-06-01T13:21:05;21.60;54.60
58638;DHT22;54976;51.510;7.522;2023-06-01T13:24:06;22.20;54.30
58638;DHT22;54976;51.510;7.522;2023-06-01T13:27:08;22.90;52.40
58638;DHT22;54976;51.510;7.522;2023-06-01T13:30:08;22.70;52.30
58638;DHT22;54976;51.510;7.522;2023-06-01T13:33:10;22.00;54.00
58638;DHT22;54976;51.510;7.522;2023-06-01T13:36:11;21.90;55.20
58638;DHT22;54976;51.510;7.522;2023-06-01T13:39:11;22.40;52.00
58638;DHT22;54976;51.510;7.522;2023-06-01T13:42:12;22.50;52.70
58638;DHT22;54976;51.510;7.522;2023-06-01T13:45:12;23.30;52.00
58638;DHT22;54976;51.510;7.522;2023-06-01T13:48:13;23.50;52.30
58638;DHT22;54976;51.510;7.522;2023-06-01T13:51:14;23.40;51.30
58638;DHT22;54976;51.510;7.522;2023-06-01T13:54:15;23.20;51.60
58638;DHT22;54976;51.510;7.522;2023-06-01T13:57:16;23.00;51.80
58638;DHT22;54976;51.510;7.522;2023-06-01T14:00:18;22.10;53.30
58638;DHT22;54976;51.510;7.522;2023-06-01T14:03:18;22.00;53.30
58638;DHT22;54976;51.510;7.522;2023-06-01T14:06:19;21.80;53.80
58638;DHT22;54976;51.510;7.522;2023-06-01T14:09:20;21.50;54.20
58638;DHT22;54976;51.510;7.522;2023-06-01T14:12:21;21.40;55.20
58638;DHT22;54976;51.510;7.522;2023-06-01T14:15:22;21.10;54.90
58638;DHT22;54976;51.510;7.522;2023-06-01T14:18:23;21.20;56.50
58638;DHT22;54976;51.510;7.522;2023-06-01T14:21:23;21.50;53.90
58638;DHT22;54976;51.510;7.522;2023-06-01T14:24:24;21.40;55.10
58638;DHT22;54976;51.510;7.522;2023-06-01T14:27:25;21.50;54.60
58638;DHT22;54976;51.510;7.522;2023-06-01T14:30:25;21.90;54.60
58638;DHT22;54976;51.510;7.522;2023-06-01T14:33:27;21.40;54.90
58638;DHT22;54976;51.510;7.522;2023-06-01T14:36:28;21.50;55.20
58638;DHT22;54976;51.510;7.522;2023-06-01T14:39:28;21.10;55.90
58638;DHT22;54976;51.510;7.522;2023-06-01T14:42:29;21.20;54.80
58638;DHT22;54976;51.510;7.522;2023-06-01T14:45:30;20.70;54.30
58638;DHT22;54976;51.510;7.522;2023-06-01T14:48:31;20.40;55.10
58638;DHT22;54976;51.510;7.522;2023-06-01T14:51:31;20.70;55.00
58638;DHT22;54976;51.510;7.522;2023-06-01T14:54:33;20.70;55.60
58638;DHT22;54976;51.510;7.522;2023-06-01T14:57:34;21.20;54.20
58638;DHT22;54976;51.510;7.522;2023-06-01T15:00:37;21.30;54.00
58638;DHT22;54976;51.510;7.522;2023-06-01T15:03:38;21.10;54.20
58638;DHT22;54976;51.510;7.522;2023-06-01T15:06:39;20.80;54.00
58638;DHT22;54976;51.510;7.522;2023-06-01T15:09:39;20.30;54.70
58638;DHT22;54976;51.510;7.522;2023-06-01T15:12:41;20.10;55.90
58638;DHT22;54976;51.510;7.522;2023-06-01T15:15:42;20.10;56.70
58638;DHT22;54976;51.510;7.522;2023-06-01T15:18:42;20.20;58.10
58638;DHT22;54976;51.510;7.522;2023-06-01T15:21:43;20.60;58.70
58638;DHT22;54976;51.510;7.522;2023-06-01T15:24:43;21.00;56.60
58638;DHT22;54976;51.510;7.522;2023-06-01T15:27:44;20.90;55.50
58638;DHT22;54976;51.510;7.522;2023-06-01T15:30:45;20.60;56.90
58638;DHT22;54976;51.510;7.522;2023-06-01T15:33:45;20.50;55.70
58638;DHT22;54976;51.510;7.522;2023-06-01T15:36:46;20.10;57.10
58638;DHT22;54976;51.510;7.522;2023-06-01T15:39:46;20.00;57.00
58638;DHT22;54976;51.510;7.522;2023-06-01T15:42:47;19.50;57.50
58638;DHT22;54976;51.510;7.522;2023-06-01T15:45:48;19.30;58.60
58638;DHT22;54976;51.510;7.522;2023-06-01T15:48:48;19.50;58.50
58638;DHT22;54976;51.510;7.522;2023-06-01T15:51:49;19.70;58.00
58638;DHT22;54976;51.510;7.522;2023-06-01T15:54:50;19.60;59.00
58638;DHT22;54976;51.510;7.522;2023-06-01T15:57:50;19.50;58.20
58638;DHT22;54976;51.510;7.522;2023-06-01T16:00:51;19.50;58.60
58638;DHT22;54976;51.510;7.522;2023-06-01T16:03:52;19.50;58.70
58638;DHT22;54976;51.510;7.522;2023-06-01T16:06:52;19.60;58.60
58638;DHT22;54976;51.510;7.522;2023-06-01T16:09:53;19.60;58.20
58638;DHT22;54976;51.510;7.522;2023-06-01T16:12:53;19.60;59.40
58638;DHT22;54976;51.510;7.522;2023-06-01T16:15:54;19.70;60.00
58638;DHT22;54976;51.510;7.522;2023-06-01T16:18:54;20.00;59.40
58638;DHT22;54976;51.510;7.522;2023-06-01T16:21:55;20.20;57.90
58638;DHT22;54976;51.510;7.522;2023-06-01T16:24:58;20.00;57.80
58638;DHT22;54976;51.510;7.522;2023-06-01T16:27:59;19.70;59.20
58638;DHT22;54976;51.510;7.522;2023-06-01T16:31:00;19.40;59.80
58638;DHT22;54976;51.510;7.522;2023-06-01T16:34:01;19.40;59.20
58638;DHT22;54976;51.510;7.522;2023-06-01T16:37:02;19.40;59.50
58638;DHT22;54976;51.510;7.522;2023-06-01T16:40:03;19.40;60.00
58638;DHT22;54976;51.510;7.522;2023-06-01T16:43:03;19.30;59.70
58638;DHT22;54976;51.510;7.522;2023-06-01T16:46:04;19.30;61.40
58638;DHT22;54976;51.510;7.522;2023-06-01T16:49:05;19.60;60.80
58638;DHT22;54976;51.510;7.522;2023-06-01T16:52:06;19.60;59.40
58638;DHT22;54976;51.510;7.522;2023-06-01T16:55:07;19.50;59.30
58638;DHT22;54976;51.510;7.522;2023-06-01T16:58:07;19.50;59.90
58638;DHT22;54976;51.510;7.522;2023-06-01T17:01:08;19.60;61.70
58638;DHT22;54976;51.510;7.522;2023-06-01T17:04:08;19.70;61.60
58638;DHT22;54976;51.510;7.522;2023-06-01T17:07:09;19.60;59.70
58638;DHT22;54976;51.510;7.522;2023-06-01T17:10:10;19.30;60.30
58638;DHT22;54976;51.510;7.522;2023-06-01T17:13:10;19.10;61.90
58638;DHT22;54976;51.510;7.522;2023-06-01T17:16:11;18.80;62.80
58638;DHT22;54976;51.510;7.522;2023-06-01T17:19:12;18.70;64.20
58638;DHT22;54976;51.510;7.522;2023-06-01T17:22:12;18.60;65.70
58638;DHT22;54976;51.510;7.522;2023-06-01T17:25:13;18.50;65.70
58638;DHT22;54976;51.510;7.522;2023-06-01T17:28:13;18.30;66.50
58638;DHT22;54976;51.510;7.522;2023-06-01T17:31:14;18.40;67.50
58638;DHT22;54976;51.510;7.522;2023-06-01T17:34:15;18.50;69.10
58638;DHT22;54976;51.510;7.522;2023-06-01T17:37:15;18.40;68.20
58638;DHT22;54976;51.510;7.522;2023-06-01T17:40:16;18.40;68.70
58638;DHT22;54976;51.510;7.522;2023-06-01T17:43:17;18.20;68.80
58638;DHT22;54976;51.510;7.522;2023-06-01T17:46:17;18.10;69.80
58638;DHT22;54976;51.510;7.522;2023-06-01T17:49:18;18.00;70.40
58638;DHT22;54976;51.510;7.522;2023-06-01T17:52:19;17.70;71.80
58638;DHT22;54976;51.510;7.522;2023-06-01T17:55:19;17.60;72.40
58638;DHT22;54976;51.510;7.522;2023-06-01T17:58:20;17.50;73.00
58638;DHT22;54976;51.510;7.522;2023-06-01T18:01:21;17.40;73.90
58638;DHT22;54976;51.510;7.522;2023-06-01T18:04:22;17.30;74.40
58638;DHT22;54976;51.510;7.522;2023-06-01T18:07:22;17.20;74.20
58638;DHT22;54976;51.510;7.522;2023-06-01T18:10:25;17.10;74.70
58638;DHT22;54976;51.510;7.522;2023-06-01T18:13:26;17.10;75.20
58638;DHT22;54976;51.510;7.522;2023-06-01T18:16:26;16.90;75.50
58638;DHT22;54976;51.510;7.522;2023-06-01T18:19:27;16.60;76.10
58638;DHT22;54976;51.510;7.522;2023-06-01T18:22:28;16.60;77.80
58638;DHT22;54976;51.510;7.522;2023-06-01T18:25:28;16.40;77.90
58638;DHT22;54976;51.510;7.522;2023-06-01T18:28:29;16.40;78.10
58638;DHT22;54976;51.510;7.522;2023-06-01T18:31:30;16.10;79.50
58638;DHT22;54976;51.510;7.522;2023-06-01T18:34:30;16.10;79.70
58638;DHT22;54976;51.510;7.522;2023-06-01T18:37:31;15.90;80.00
58638;DHT22;54976;51.510;7.522;2023-06-01T18:40:32;15.90;80.40
58638;DHT22;54976;51.510;7.522;2023-06-01T18:43:33;15.90;78.70
58638;DHT22;54976;51.510;7.522;2023-06-01T18:46:34;15.80;78.60
58638;DHT22;54976;51.510;7.522;2023-06-01T18:49:39;15.90;75.90
58638;DHT22;54976;51.510;7.522;2023-06-01T18:52:43;15.90;75.70
58638;DHT22;54976;51.510;7.522;2023-06-01T18:55:44;15.80;74.80
58638;DHT22;54976;51.510;7.522;2023-06-01T18:58:48;15.80;75.00
58638;DHT22;54976;51.510;7.522;2023-06-01T19:01:49;15.70;75.50
58638;DHT22;54976;51.510;7.522;2023-06-01T19:04:55;15.70;75.50
58638;DHT22;54976;51.510;7.522;2023-06-01T19:08:01;15.60;75.40
58638;DHT22;54976;51.510;7.522;2023-06-01T19:11:05;15.50;75.80
58638;DHT22;54976;51.510;7.522;2023-06-01T19:14:07;15.40;75.90
58638;DHT22;54976;51.510;7.522;2023-06-01T19:17:10;15.40;77.00
58638;DHT22;54976;51.510;7.522;2023-06-01T19:23:32;15.20;78.50
58638;DHT22;54976;51.510;7.522;2023-06-01T19:26:34;15.10;78.60
58638;DHT22;54976;51.510;7.522;2023-06-01T19:29:38;15.00;79.40
58638;DHT22;54976;51.510;7.522;2023-06-01T19:32:41;14.90;79.70